Time;durP1;ratioP1;P1;durP2;ratioP2;P2;SDS_P1;SDS_P2;PMS_P1;PMS_P2;Temp;Humidity;BMP_temperature;BMP_pressure;BME280_temperature;BME280_humidity;BME280_pressure;Samples;Min_cycle;Max_cycle;Signal;HPM_P1;HPM_P2
2023/05/31 00:01:32;;;;;;;4.20;2.57;;;;;;;17.55;100.00;99187.81;5070783;28;20238;-80
2023/05/31 00:03:58;;;;;;;4.30;2.57;;;;;;;17.54;100.00;99193.94;5070941;28;20228;-80
2023/05/31 00:06:27;;;;;;;5.70;2.87;;;;;;;17.54;100.00;99193.94;5070489;28;20657;-79
2023/05/31 00:08:53;;;;;;;3.50;2.33;;;;;;;17.50;100.00;99192.63;5070597;28;20227;-80
2023/05/31 00:11:22;;;;;;;5.83;2.70;;;;;;;17.48;100.00;99197.13;5070337;28;20286;-80
2023/05/31 00:13:48;;;;;;;5.03;2.13;;;;;;;17.44;100.00;99196.63;5070554;28;20209;-79
2023/05/31 00:16:15;;;;;;;3.50;2.53;;;;;;;17.43;100.00;99198.41;5070590;28;20226;-80
2023/05/31 00:18:42;;;;;;;3.93;2.53;;;;;;;17.39;100.00;99194.50;5070557;28;20601;-80
2023/05/31 00:21:09;;;;;;;3.70;2.57;;;;;;;17.39;100.00;99196.25;5070792;28;20689;-80
2023/05/31 00:23:37;;;;;;;3.83;2.30;;;;;;;17.36;100.00;99197.38;5070751;28;20223;-80
2023/05/31 00:26:04;;;;;;;4.87;3.13;;;;;;;17.33;100.00;99192.50;5070340;28;20222;-79
2023/05/31 00:28:31;;;;;;;5.53;2.50;;;;;;;17.30;100.00;99197.97;5074046;28;20207;-80
2023/05/31 00:30:57;;;;;;;5.07;3.10;;;;;;;17.30;100.00;99197.97;5073966;28;20224;-80
2023/05/31 00:33:24;;;;;;;8.47;3.10;;;;;;;17.28;100.00;99194.75;5074285;28;20195;-79
2023/05/31 00:35:51;;;;;;;5.43;2.93;;;;;;;17.25;100.00;99200.22;5073701;28;20220;-80
2023/05/31 00:38:18;;;;;;;4.87;2.77;;;;;;;17.24;100.00;99203.75;5074135;28;20196;-80
2023/05/31 00:40:47;;;;;;;3.60;2.63;;;;;;;17.27;100.00;99203.44;5074016;28;20236;-80
2023/05/31 00:43:14;;;;;;;4.27;3.03;;;;;;;17.22;100.00;99205.69;5073764;28;20710;-80
2023/05/31 00:45:41;;;;;;;4.43;2.47;;;;;;;17.19;100.00;99196.47;5073287;28;20233;-80
2023/05/31 00:48:08;;;;;;;3.40;2.43;;;;;;;17.20;100.00;99205.03;5073474;28;20205;-80
2023/05/31 00:50:35;;;;;;;5.00;2.70;;;;;;;17.20;100.00;99202.44;5073776;28;20610;-80
2023/05/31 00:53:04;;;;;;;4.87;2.17;;;;;;;17.18;100.00;99204.34;5073687;28;20255;-79
2023/05/31 00:55:33;;;;;;;4.00;2.77;;;;;;;17.16;100.00;99201.94;5073179;28;20227;-80
2023/05/31 00:58:01;;;;;;;3.60;2.03;;;;;;;17.13;100.00;99201.41;5073872;28;20638;-80
2023/05/31 01:00:29;;;;;;;3.70;2.77;;;;;;;17.10;100.00;99201.72;5073102;28;20283;-80
2023/05/31 01:02:56;;;;;;;2.93;2.23;;;;;;;17.08;100.00;99195.91;5073291;28;20306;-80
2023/05/31 01:05:23;;;;;;;3.17;2.33;;;;;;;17.08;100.00;99194.13;5073522;28;20797;-79
2023/05/31 01:07:51;;;;;;;3.77;2.77;;;;;;;17.10;100.00;99193.97;5073185;28;20201;-80
2023/05/31 01:10:18;;;;;;;4.10;2.50;;;;;;;17.07;100.00;99197.66;5073202;28;20610;-80
2023/05/31 01:12:53;;;;;;;3.40;2.50;;;;;;;17.11;100.00;99198.19;5072930;28;20207;-80
2023/05/31 01:15:25;;;;;;;3.73;2.37;;;;;;;17.10;100.00;99196.53;5073614;28;20230;-80
2023/05/31 01:17:59;;;;;;;3.10;2.00;;;;;;;17.05;100.00;99203.94;5072879;28;20633;-80
2023/05/31 01:20:28;;;;;;;5.53;2.07;;;;;;;17.04;100.00;99208.28;5073250;28;20232;-80
2023/05/31 01:23:39;;;;;;;5.00;3.10;;;;;;;17.02;100.00;99210.22;5073031;28;20694;-80
2023/05/31 01:26:34;;;;;;;3.57;2.37;;;;;;;16.95;100.00;99209.97;5073123;28;20355;-80
2023/05/31 01:29:04;;;;;;;4.27;2.20;;;;;;;16.90;100.00;99206.22;5072582;28;20682;-80
2023/05/31 01:31:35;;;;;;;3.07;2.60;;;;;;;16.88;100.00;99214.13;5073195;28;20244;-80
2023/05/31 01:34:03;;;;;;;3.30;2.43;;;;;;;16.85;100.00;99209.25;5073640;28;20203;-80
2023/05/31 01:36:30;;;;;;;4.37;2.63;;;;;;;16.79;100.00;99215.03;5073041;28;20235;-79
2023/05/31 01:38:57;;;;;;;4.23;2.73;;;;;;;16.73;100.00;99208.66;5072469;28;20255;-79
2023/05/31 01:41:27;;;;;;;4.30;2.40;;;;;;;16.66;100.00;99205.00;5072914;28;20627;-80
2023/05/31 01:43:56;;;;;;;4.33;2.60;;;;;;;16.62;100.00;99205.47;5072507;28;20229;-80
2023/05/31 01:46:23;;;;;;;4.00;2.50;;;;;;;16.58;100.00;99207.53;5072622;28;20239;-80
2023/05/31 01:48:51;;;;;;;4.70;2.40;;;;;;;16.59;100.00;99205.75;5072961;28;20296;-80
2023/05/31 01:51:19;;;;;;;5.23;2.60;;;;;;;16.65;100.00;99202.59;5072585;28;20938;-80
2023/05/31 01:53:46;;;;;;;4.37;3.20;;;;;;;16.64;100.00;99195.78;5073288;28;20195;-79
2023/05/31 01:56:14;;;;;;;4.83;2.70;;;;;;;16.65;100.00;99202.59;5072884;28;20282;-80
2023/05/31 01:58:44;;;;;;;4.23;2.43;;;;;;;16.64;100.00;99200.94;5072557;28;20204;-79
2023/05/31 02:01:13;;;;;;;3.40;2.37;;;;;;;16.61;100.00;99201.25;5071943;28;20223;-80
2023/05/31 02:03:40;;;;;;;4.73;2.40;;;;;;;16.58;100.00;99192.06;5072992;28;20226;-80
2023/05/31 02:06:07;;;;;;;6.57;2.73;;;;;;;16.57;100.00;99197.34;5072275;28;20238;-80
2023/05/31 02:08:34;;;;;;;3.90;2.40;;;;;;;16.57;100.00;99210.25;5072471;28;20206;-80
2023/05/31 02:11:01;;;;;;;3.77;2.40;;;;;;;16.52;100.00;99203.78;5071712;28;20734;-80
2023/05/31 02:13:29;;;;;;;4.57;2.53;;;;;;;16.49;100.00;99211.81;5071937;28;20295;-80
2023/05/31 02:15:56;;;;;;;3.53;2.77;;;;;;;16.46;100.00;99212.09;5072062;28;20680;-81
2023/05/31 02:18:26;;;;;;;8.87;3.10;;;;;;;16.44;100.00;99208.84;5071998;28;20207;-80
2023/05/31 02:20:53;;;;;;;4.60;2.80;;;;;;;16.44;100.00;99210.63;5072026;28;20225;-80
2023/05/31 02:23:20;;;;;;;6.50;2.87;;;;;;;16.45;100.00;99210.44;5071737;28;20232;-81
2023/05/31 02:25:48;;;;;;;4.30;2.73;;;;;;;16.49;100.00;99214.38;5071643;28;20282;-81
2023/05/31 02:28:15;;;;;;;5.63;2.73;;;;;;;16.51;100.00;99219.38;5071711;28;20294;-81
2023/05/31 02:30:43;;;;;;;3.77;2.80;;;;;;;16.51;100.00;99221.97;5071715;28;20217;-81
2023/05/31 02:33:10;;;;;;;4.70;3.37;;;;;;;16.49;100.00;99222.13;5071353;28;20202;-81
2023/05/31 02:35:38;;;;;;;3.60;2.70;;;;;;;16.50;100.00;99226.31;5071708;28;20647;-81
2023/05/31 02:38:06;;;;;;;3.77;2.87;;;;;;;16.43;100.00;99225.25;5071641;28;20215;-81
2023/05/31 02:40:33;;;;;;;4.23;3.00;;;;;;;16.33;100.00;99224.53;5072251;28;20290;-81
2023/05/31 02:42:59;;;;;;;5.70;3.10;;;;;;;16.43;100.00;99229.63;5071126;28;20323;-81
2023/05/31 02:45:26;;;;;;;3.80;2.80;;;;;;;16.44;100.00;99233.84;5071502;28;20231;-81
2023/05/31 02:47:53;;;;;;;4.57;2.43;;;;;;;16.41;100.00;99237.53;5071805;28;20211;-80
2023/05/31 02:50:20;;;;;;;4.43;3.00;;;;;;;16.39;100.00;99239.41;5071309;28;20228;-81
2023/05/31 02:52:48;;;;;;;3.43;2.70;;;;;;;16.34;100.00;99239.03;5071334;28;20201;-81
2023/05/31 02:55:15;;;;;;;3.13;2.47;;;;;;;16.34;100.00;99239.03;5071456;28;20224;-81
2023/05/31 02:57:42;;;;;;;4.03;2.63;;;;;;;16.38;100.00;99247.31;5071128;28;20200;-81
2023/05/31 03:00:12;;;;;;;4.57;2.87;;;;;;;16.37;100.00;99246.47;5071255;28;20221;-81
2023/05/31 03:02:39;;;;;;;5.20;3.20;;;;;;;16.38;100.00;99253.28;5071251;28;20218;-81
2023/05/31 03:05:08;;;;;;;5.37;3.20;;;;;;;16.39;100.00;99254.09;5070887;28;20713;-81
2023/05/31 03:07:36;;;;;;;5.23;3.17;;;;;;;16.38;100.00;99258.44;5071206;28;20202;-81
2023/05/31 03:10:05;;;;;;;4.80;2.87;;;;;;;16.41;100.00;99253.00;5071623;28;20212;-81
2023/05/31 03:12:31;;;;;;;4.70;3.00;;;;;;;16.38;100.00;99252.47;5071214;28;20523;-81
2023/05/31 03:14:58;;;;;;;4.87;3.00;;;;;;;16.38;100.00;99250.72;5070421;28;20227;-81
2023/05/31 03:17:25;;;;;;;4.80;2.80;;;;;;;16.40;100.00;99246.19;5070842;28;20650;-80
2023/05/31 03:19:52;;;;;;;4.20;2.67;;;;;;;16.42;100.00;99249.47;5071198;28;20729;-81
2023/05/31 03:22:20;;;;;;;5.53;3.13;;;;;;;16.44;100.00;99255.28;5071005;28;20208;-81
2023/05/31 03:24:47;;;;;;;4.10;2.97;;;;;;;16.47;100.00;99257.59;5070762;28;20784;-81
2023/05/31 03:27:16;;;;;;;5.30;3.60;;;;;;;16.46;100.00;99250.81;5070222;28;20201;-81
2023/05/31 03:29:43;;;;;;;8.90;3.90;;;;;;;16.53;100.00;99251.03;5070892;28;20203;-81
2023/05/31 03:32:10;;;;;;;5.80;3.60;;;;;;;16.59;100.00;99255.63;5070329;28;20281;-81
2023/05/31 03:34:37;;;;;;;4.17;2.90;;;;;;;16.63;100.00;99256.13;5070519;28;20199;-81
2023/05/31 03:37:04;;;;;;;8.13;3.87;;;;;;;16.64;100.00;99257.75;5070839;28;20212;-81
2023/05/31 03:39:31;;;;;;;11.03;4.03;;;;;;;16.70;100.00;99260.56;5070682;28;20215;-81
2023/05/31 03:41:58;;;;;;;5.60;3.70;;;;;;;16.70;100.00;99263.16;5070735;28;20204;-81
2023/05/31 03:44:26;;;;;;;6.37;3.33;;;;;;;16.80;100.00;99267.47;5070290;28;20724;-81
2023/05/31 03:46:53;;;;;;;5.27;3.50;;;;;;;16.84;100.00;99264.47;5070515;28;20202;-81
2023/05/31 03:49:20;;;;;;;7.27;3.93;;;;;;;16.89;100.00;99262.22;5070934;28;20678;-81
2023/05/31 03:51:47;;;;;;;7.40;4.07;;;;;;;16.96;100.00;99257.31;5070170;28;20229;-81
2023/05/31 03:54:14;;;;;;;8.60;4.37;;;;;;;17.01;100.00;99264.59;5070527;28;20215;-81
2023/05/31 03:56:41;;;;;;;5.50;3.77;;;;;;;16.98;100.00;99266.50;5070372;28;20230;-81
2023/05/31 03:59:09;;;;;;;6.90;4.23;;;;;;;17.06;100.00;99263.19;5070388;28;20635;-81
2023/05/31 04:01:37;;;;;;;9.17;3.70;;;;;;;17.19;100.00;99268.81;5071405;28;20307;-81
2023/05/31 04:04:04;;;;;;;9.10;4.07;;;;;;;17.28;100.00;99274.88;5074847;28;20240;-81
2023/05/31 04:06:31;;;;;;;5.57;3.87;;;;;;;17.37;100.00;99273.97;5074092;28;20259;-81
2023/05/31 04:08:58;;;;;;;6.93;3.50;;;;;;;17.47;100.00;99275.66;5074257;28;20198;-81
2023/05/31 04:11:25;;;;;;;7.17;3.73;;;;;;;17.54;100.00;99274.91;5074373;28;20234;-81
2023/05/31 04:13:53;;;;;;;6.17;3.53;;;;;;;17.58;100.00;99272.81;5074385;28;20252;-81
2023/05/31 04:16:20;;;;;;;6.03;4.03;;;;;;;17.64;100.00;99285.16;5074814;28;20300;-81
2023/05/31 04:18:48;;;;;;;6.83;3.87;;;;;;;17.72;100.00;99280.03;5073718;28;20200;-81
2023/05/31 04:21:15;;;;;;;6.97;3.97;;;;;;;17.79;100.00;99283.66;5074328;28;20226;-81
2023/05/31 04:23:42;;;;;;;4.93;3.57;;;;;;;17.79;100.00;99283.66;5073927;28;20228;-81
2023/05/31 04:26:14;;;;;;;6.40;4.13;;;;;;;17.87;100.00;99288.06;5074121;28;20759;-80
2023/05/31 04:28:41;;;;;;;7.80;4.10;;;;;;;17.98;100.00;99294.78;5073762;28;20216;-80
2023/05/31 04:31:08;;;;;;;7.20;3.97;;;;;;;18.08;100.00;99295.47;5074105;28;20233;-80
2023/05/31 04:33:35;;;;;;;9.03;4.23;;;;;;;18.19;100.00;99296.97;5074150;28;20250;-80
2023/05/31 04:36:04;;;;;;;6.77;3.87;;;;;;;18.35;100.00;99301.41;5073751;28;20674;-80
2023/05/31 04:38:32;;;;;;;6.57;4.10;;;;;;;18.42;100.00;99300.63;5074077;28;20200;-80
2023/05/31 04:40:59;;;;;;;5.03;3.53;;;;;;;18.52;100.00;99305.69;5073942;28;20611;-80
2023/05/31 04:43:26;;;;;;;5.80;3.60;;;;;;;18.63;100.00;99300.22;5073451;28;20207;-80
2023/05/31 04:45:53;;;;;;;5.97;3.50;;;;;;;18.77;100.00;99302.22;5073738;28;20319;-80
2023/05/31 04:48:20;;;;;;;5.43;3.40;;;;;;;18.88;100.00;99302.88;5073577;28;20201;-80
2023/05/31 04:50:48;;;;;;;6.17;3.40;;;;;;;19.02;100.00;99299.69;5073682;28;20225;-80
2023/05/31 04:53:16;;;;;;;4.97;3.37;;;;;;;19.15;100.00;99305.22;5073710;28;20205;-80
2023/05/31 04:55:43;;;;;;;4.40;3.23;;;;;;;19.33;100.00;99299.06;5073652;28;20295;-80
2023/05/31 04:58:10;;;;;;;7.30;3.00;;;;;;;19.49;100.00;99306.03;5073257;28;20324;-80
2023/05/31 05:00:37;;;;;;;6.43;3.90;;;;;;;19.65;100.00;99304.28;5073245;28;20252;-80
2023/05/31 05:03:04;;;;;;;6.67;3.80;;;;;;;19.80;100.00;99304.41;5073192;28;20412;-81
2023/05/31 05:05:31;;;;;;;4.60;3.13;;;;;;;19.95;100.00;99306.31;5073138;28;20492;-80
2023/05/31 05:07:58;;;;;;;5.23;3.50;;;;;;;20.06;100.00;99309.38;5073404;28;20204;-80
2023/05/31 05:10:26;;;;;;;6.10;3.13;;;;;;;20.22;100.00;99312.94;5073370;28;20220;-80
2023/05/31 05:12:53;;;;;;;3.53;2.70;;;;;;;20.35;100.00;99313.19;5072685;28;20198;-80
2023/05/31 05:15:20;;;;;;;4.20;2.97;;;;;;;20.52;100.00;99321.72;5073044;28;20616;-80
2023/05/31 05:17:47;;;;;;;4.37;3.00;;;;;;;20.67;100.00;99321.84;5072779;28;20260;-80
2023/05/31 05:20:14;;;;;;;3.70;2.37;;;;;;;20.85;100.00;99325.00;5073131;28;20225;-80
2023/05/31 05:22:42;;;;;;;4.70;3.07;;;;;;;20.99;100.00;99326.06;5073097;28;20233;-80
2023/05/31 05:25:10;;;;;;;4.33;2.90;;;;;;;21.11;100.00;99329.06;5072663;28;20727;-80
2023/05/31 05:27:39;;;;;;;6.43;2.50;;;;;;;21.16;100.00;99326.78;5073105;28;20211;-80
2023/05/31 05:30:07;;;;;;;3.15;2.35;;;;;;;21.31;100.00;99332.03;5073198;28;20298;-80
2023/05/31 05:32:34;;;;;;;4.35;2.90;;;;;;;21.42;100.00;99336.84;5072759;28;20195;-80
2023/05/31 05:35:01;;;;;;;3.50;2.45;;;;;;;21.64;100.00;99335.19;5072762;28;20312;-80
2023/05/31 05:37:27;;;;;;;5.40;2.85;;;;;;;21.78;100.00;99337.00;5072266;28;20202;-80
2023/05/31 05:39:54;;;;;;;3.63;2.70;;;;;;;21.87;100.00;99345.56;5072755;28;20237;-80
2023/05/31 05:42:21;;;;;;;4.65;2.83;;;;;;;21.98;100.00;99344.31;5072354;28;20221;-80
2023/05/31 05:44:49;;;;;;;4.20;2.63;;;;;;;22.12;100.00;99348.75;5072672;28;20246;-80
2023/05/31 05:47:16;;;;;;;3.78;2.50;;;;;;;22.18;100.00;99358.47;5072388;28;20202;-80
2023/05/31 05:49:43;;;;;;;3.05;2.40;;;;;;;22.35;100.00;99359.91;5072174;28;20222;-79
2023/05/31 05:52:10;;;;;;;3.65;2.42;;;;;;;22.53;100.00;99364.75;5071973;28;20250;-80
2023/05/31 05:54:37;;;;;;;4.22;2.65;;;;;;;22.75;100.00;99355.19;5071823;28;20199;-81
2023/05/31 05:57:04;;;;;;;3.05;2.38;;;;;;;22.95;100.00;99370.25;5071877;28;20211;-81
2023/05/31 05:59:30;;;;;;;3.72;2.28;;;;;;;23.08;100.00;99365.22;5071609;28;20203;-79
2023/05/31 06:01:59;;;;;;;3.15;2.22;;;;;;;23.22;100.00;99377.41;5072139;28;20203;-80
2023/05/31 06:04:25;;;;;;;6.95;2.55;;;;;;;23.26;97.57;99368.19;5071906;28;20803;-79
2023/05/31 06:06:52;;;;;;;6.63;3.00;;;;;;;23.50;98.27;99368.81;5072303;28;20206;-80
2023/05/31 06:09:19;;;;;;;2.95;2.35;;;;;;;23.75;100.00;99368.47;5072222;28;20198;-80
2023/05/31 06:11:46;;;;;;;5.55;2.60;;;;;;;23.99;96.37;99373.25;5071854;28;20954;-80
2023/05/31 06:14:13;;;;;;;3.75;2.45;;;;;;;24.23;97.19;99373.78;5072506;28;20202;-80
2023/05/31 06:16:40;;;;;;;3.38;2.67;;;;;;;24.51;98.50;99371.16;5071847;28;20494;-80
2023/05/31 06:19:08;;;;;;;5.15;2.80;;;;;;;24.68;91.70;99379.47;5072067;28;20677;-80
2023/05/31 06:21:35;;;;;;;4.18;2.22;;;;;;;24.85;94.93;99378.13;5071665;28;20703;-80
2023/05/31 06:24:03;;;;;;;3.95;2.72;;;;;;;25.01;91.15;99380.38;5070601;28;20225;-80
2023/05/31 06:26:30;;;;;;;3.22;2.40;;;;;;;24.99;87.24;99385.03;5071454;28;20636;-80
2023/05/31 06:28:59;;;;;;;6.47;2.72;;;;;;;24.99;86.94;99385.03;5071050;28;20266;-80
2023/05/31 06:31:27;;;;;;;2.95;2.45;;;;;;;25.22;89.94;99381.25;5071077;28;20233;-80
2023/05/31 06:33:53;;;;;;;5.63;2.55;;;;;;;25.32;86.38;99384.31;5071426;28;20594;-80
2023/05/31 06:36:22;;;;;;;2.78;2.38;;;;;;;25.41;86.20;99388.34;5071561;28;20215;-79
2023/05/31 06:38:48;;;;;;;6.47;2.80;;;;;;;25.57;86.29;99387.16;5071082;28;20260;-80
2023/05/31 06:41:15;;;;;;;4.45;2.83;;;;;;;25.72;86.16;99384.34;5070888;28;20226;-80
2023/05/31 06:43:42;;;;;;;4.85;2.55;;;;;;;25.85;84.35;99389.59;5071876;28;20191;-80
2023/05/31 06:46:11;;;;;;;3.17;2.15;;;;;;;25.96;83.69;99386.38;5071109;28;20280;-80
2023/05/31 06:48:38;;;;;;;3.05;2.47;;;;;;;26.25;85.66;99388.75;5070943;28;20195;-80
2023/05/31 06:51:05;;;;;;;4.35;2.88;;;;;;;26.25;82.16;99389.56;5071286;28;20714;-80
2023/05/31 06:53:33;;;;;;;3.78;2.67;;;;;;;26.29;86.07;99384.69;5071110;28;20256;-81
2023/05/31 06:56:00;;;;;;;3.80;2.80;;;;;;;26.53;91.13;99386.69;5071032;28;20614;-80
2023/05/31 06:58:31;;;;;;;3.63;2.67;;;;;;;26.79;83.42;99396.28;5071197;28;20198;-80
2023/05/31 07:00:58;;;;;;;5.55;2.65;;;;;;;26.92;82.53;99391.97;5071210;28;20253;-80
2023/05/31 07:03:25;;;;;;;5.65;2.60;;;;;;;27.12;84.23;99395.28;5071028;28;20215;-81
2023/05/31 07:05:52;;;;;;;4.70;3.10;;;;;;;27.25;84.56;99399.69;5070806;28;20309;-80
2023/05/31 07:08:19;;;;;;;2.97;2.40;;;;;;;27.52;82.12;99405.56;5071052;28;20195;-80
2023/05/31 07:10:47;;;;;;;4.72;2.78;;;;;;;27.75;84.47;99400.53;5071090;28;20218;-80
2023/05/31 07:13:14;;;;;;;3.88;2.50;;;;;;;27.89;81.87;99403.88;5071176;28;20209;-80
2023/05/31 07:15:41;;;;;;;4.03;2.78;;;;;;;28.16;81.48;99407.06;5070933;28;20616;-80
2023/05/31 07:18:08;;;;;;;4.38;2.70;;;;;;;28.30;76.14;99406.91;5070400;28;20585;-80
2023/05/31 07:20:35;;;;;;;3.55;2.75;;;;;;;28.43;71.54;99409.44;5070926;28;20223;-80
2023/05/31 07:23:01;;;;;;;4.05;2.60;;;;;;;28.48;65.30;99399.06;5070912;28;20232;-80
2023/05/31 07:25:28;;;;;;;5.22;2.80;;;;;;;28.74;75.43;99405.03;5070612;28;20253;-80
2023/05/31 07:27:56;;;;;;;3.55;2.60;;;;;;;28.83;67.96;99406.34;5070635;28;20207;-81
2023/05/31 07:30:23;;;;;;;3.95;2.50;;;;;;;28.90;70.56;99407.06;5070649;28;20226;-80
2023/05/31 07:32:50;;;;;;;5.03;2.65;;;;;;;29.11;63.71;99413.69;5070491;28;20667;-80
2023/05/31 07:35:17;;;;;;;3.53;2.42;;;;;;;29.18;63.27;99413.63;5071588;28;20218;-80
2023/05/31 07:37:43;;;;;;;4.07;2.78;;;;;;;29.25;62.89;99404.56;5077405;28;20209;-80
2023/05/31 07:40:11;;;;;;;2.67;2.28;;;;;;;29.42;63.51;99407.38;5077520;28;20268;-80
2023/05/31 07:42:38;;;;;;;3.10;2.30;;;;;;;29.55;60.64;99408.97;5077158;28;20279;-80
2023/05/31 07:45:08;;;;;;;3.28;2.42;;;;;;;29.48;58.20;99408.28;5076780;28;20363;-80
2023/05/31 07:47:36;;;;;;;2.92;2.13;;;;;;;29.38;57.72;99408.84;5077314;28;20211;-80
2023/05/31 07:50:03;;;;;;;3.67;2.58;;;;;;;29.55;62.07;99404.53;5077085;28;20589;-80
2023/05/31 07:52:30;;;;;;;4.97;2.15;;;;;;;29.15;57.61;99408.75;5077458;28;20201;-79
2023/05/31 07:54:57;;;;;;;3.63;2.40;;;;;;;28.79;57.26;99410.44;5077181;28;20313;-79
2023/05/31 07:57:24;;;;;;;2.85;2.20;;;;;;;28.74;65.80;99412.91;5077118;28;20202;-79
2023/05/31 07:59:51;;;;;;;3.80;2.47;;;;;;;28.90;64.57;99409.69;5077094;28;20603;-79
2023/05/31 08:02:19;;;;;;;7.50;2.75;;;;;;;29.05;68.63;99407.47;5076885;28;20639;-79
2023/05/31 08:04:46;;;;;;;3.40;2.47;;;;;;;29.19;66.08;99400.22;5076935;28;20230;-80
2023/05/31 08:07:13;;;;;;;2.88;2.40;;;;;;;29.25;71.87;99398.50;5077258;28;20215;-79
2023/05/31 08:09:40;;;;;;;3.53;2.55;;;;;;;29.26;69.95;99400.09;5076981;28;20194;-79
2023/05/31 08:12:07;;;;;;;8.52;2.75;;;;;;;29.44;72.68;99402.69;5077037;28;20674;-80
2023/05/31 08:14:34;;;;;;;5.05;2.80;;;;;;;29.43;68.25;99403.69;5077393;28;20565;-79
2023/05/31 08:17:01;;;;;;;3.38;2.67;;;;;;;29.66;66.38;99405.59;5076800;28;20652;-80
2023/05/31 08:19:29;;;;;;;4.20;2.55;;;;;;;29.78;69.48;99413.50;5076822;28;20202;-79
2023/05/31 08:21:56;;;;;;;3.40;2.60;;;;;;;29.77;63.71;99412.72;5077152;28;20203;-79
2023/05/31 08:24:23;;;;;;;2.95;2.47;;;;;;;29.78;67.02;99411.66;5076955;28;20222;-80
2023/05/31 08:26:51;;;;;;;3.53;2.40;;;;;;;29.55;61.94;99412.44;5076736;28;20260;-80
2023/05/31 08:29:18;;;;;;;4.90;3.00;;;;;;;29.60;66.22;99400.41;5076478;28;20255;-79
2023/05/31 08:31:44;;;;;;;4.20;2.70;;;;;;;29.74;67.63;99407.09;5077088;28;20218;-80
2023/05/31 08:34:12;;;;;;;4.65;3.03;;;;;;;29.81;66.84;99415.69;5077183;28;20264;-81
2023/05/31 08:36:41;;;;;;;3.72;2.65;;;;;;;29.61;62.79;99412.53;5076297;28;20215;-79
2023/05/31 08:39:08;;;;;;;5.68;2.88;;;;;;;29.44;63.71;99412.38;5077055;28;20265;-79
2023/05/31 08:41:44;;;;;;;3.03;2.33;;;;;;;29.49;63.86;99410.69;5076547;28;20215;-80
2023/05/31 08:44:12;;;;;;;4.00;2.30;;;;;;;29.68;65.56;99408.00;5077018;28;20654;-80
2023/05/31 08:46:40;;;;;;;4.93;2.80;;;;;;;29.76;64.38;99407.69;5076074;28;20287;-80
2023/05/31 08:49:11;;;;;;;3.78;2.70;;;;;;;29.89;64.35;99410.09;5072825;28;20195;-80
2023/05/31 08:51:41;;;;;;;3.42;2.50;;;;;;;29.82;65.01;99414.69;5073334;28;20232;-80
2023/05/31 08:54:09;;;;;;;4.20;2.55;;;;;;;29.85;66.97;99410.78;5073399;28;20281;-80
2023/05/31 08:56:39;;;;;;;4.07;2.85;;;;;;;29.90;63.82;99406.41;5073090;28;20223;-80
2023/05/31 08:59:11;;;;;;;3.42;2.38;;;;;;;29.74;63.03;99404.47;5073785;28;20206;-80
2023/05/31 09:01:38;;;;;;;7.30;3.08;;;;;;;29.37;63.60;99404.59;5073572;28;20674;-80
2023/05/31 09:04:05;;;;;;;3.15;2.33;;;;;;;28.96;60.43;99403.53;5073965;28;20203;-80
2023/05/31 09:06:32;;;;;;;5.78;2.72;;;;;;;28.98;60.99;99401.47;5073050;28;20234;-80
2023/05/31 09:09:01;;;;;;;3.28;2.47;;;;;;;29.02;64.62;99401.84;5073310;28;20203;-80
2023/05/31 09:11:28;;;;;;;3.40;2.47;;;;;;;28.83;60.50;99401.09;5072742;28;20223;-79
2023/05/31 09:13:55;;;;;;;3.30;2.45;;;;;;;29.04;64.02;99397.19;5072653;28;20209;-82
2023/05/31 09:16:24;;;;;;;2.80;2.28;;;;;;;29.00;61.48;99391.53;5072941;28;20214;-81
2023/05/31 09:19:01;;;;;;;3.63;2.60;;;;;;;29.10;64.02;99397.09;5072747;28;20205;-82
2023/05/31 09:21:28;;;;;;;3.78;2.78;;;;;;;29.33;62.20;99390.28;5072234;28;20253;-82
2023/05/31 09:23:56;;;;;;;4.07;2.38;;;;;;;29.49;63.82;99386.97;5072548;28;20195;-82
2023/05/31 09:26:25;;;;;;;3.97;2.80;;;;;;;29.52;64.09;99394.44;5072465;28;20234;-81
2023/05/31 09:28:53;;;;;;;7.18;2.83;;;;;;;29.65;65.55;99392.66;5072735;28;20202;-81
2023/05/31 09:31:20;;;;;;;4.60;2.95;;;;;;;29.82;60.85;99390.94;5072538;28;20674;-81
2023/05/31 09:33:51;;;;;;;3.63;2.60;;;;;;;29.96;64.58;99379.16;5072448;28;20207;-82
2023/05/31 09:36:25;;;;;;;3.83;2.42;;;;;;;30.15;60.26;99386.91;5072526;28;20219;-81
2023/05/31 09:39:00;;;;;;;3.05;2.47;;;;;;;30.12;60.24;99382.09;5073080;28;20202;-81
2023/05/31 09:41:29;;;;;;;4.78;3.08;;;;;;;30.10;60.40;99382.31;5072299;28;20226;-81
2023/05/31 09:43:56;;;;;;;3.80;2.83;;;;;;;30.07;60.05;99380.16;5072715;28;20207;-81
2023/05/31 09:46:24;;;;;;;4.72;2.80;;;;;;;30.07;64.17;99376.72;5072135;28;20234;-81
2023/05/31 09:48:58;;;;;;;4.00;2.67;;;;;;;29.93;64.03;99370.88;5072436;28;20210;-81
2023/05/31 09:51:25;;;;;;;3.97;2.60;;;;;;;30.12;60.84;99371.56;5071984;28;20232;-82
2023/05/31 09:53:55;;;;;;;3.42;2.60;;;;;;;30.07;62.40;99368.81;5072314;28;20566;-81
2023/05/31 09:56:23;;;;;;;2.97;2.33;;;;;;;29.86;60.62;99362.28;5072021;28;20301;-80
2023/05/31 09:58:52;;;;;;;3.45;2.72;;;;;;;30.26;57.23;99361.59;5070800;28;20199;-81
2023/05/31 10:01:19;;;;;;;4.35;2.35;;;;;;;30.45;56.07;99365.66;5071838;28;20218;-81
2023/05/31 10:03:49;;;;;;;3.42;2.38;;;;;;;30.30;58.41;99363.50;5072011;28;20199;-81
2023/05/31 10:06:17;;;;;;;5.35;2.53;;;;;;;30.21;53.23;99354.38;5071713;28;20702;-80
2023/05/31 10:08:44;;;;;;;2.97;2.30;;;;;;;30.15;54.34;99345.50;5071900;28;20210;-81
2023/05/31 10:11:13;;;;;;;3.83;2.45;;;;;;;30.22;54.18;99351.50;5072068;28;20230;-81
2023/05/31 10:13:43;;;;;;;3.95;2.50;;;;;;;30.15;56.94;99350.00;5072576;28;20203;-80
2023/05/31 10:16:12;;;;;;;3.65;2.42;;;;;;;29.86;56.88;99347.28;5071881;28;20214;-80
2023/05/31 10:18:44;;;;;;;4.43;2.42;;;;;;;29.70;52.77;99342.69;5071958;28;20647;-80
2023/05/31 10:21:22;;;;;;;4.97;2.70;;;;;;;29.59;54.56;99344.28;5072016;28;20218;-80
2023/05/31 10:23:57;;;;;;;2.80;2.20;;;;;;;29.59;52.22;99351.38;5072014;28;20206;-80
2023/05/31 10:26:32;;;;;;;3.08;2.28;;;;;;;29.70;55.89;99337.41;5071922;28;20684;-80
2023/05/31 10:29:10;;;;;;;3.22;2.20;;;;;;;29.68;56.03;99339.50;5071155;28;20210;-80
2023/05/31 10:31:44;;;;;;;4.43;2.65;;;;;;;29.66;55.72;99342.34;5071646;28;20222;-80
2023/05/31 10:34:19;;;;;;;2.97;2.50;;;;;;;29.69;52.38;99341.09;5071594;28;20202;-81
2023/05/31 10:36:47;;;;;;;3.25;2.33;;;;;;;29.85;60.02;99335.13;5071371;28;20255;-81
2023/05/31 10:39:21;;;;;;;3.03;2.42;;;;;;;29.73;52.67;99339.59;5071850;28;20237;-80
2023/05/31 10:41:54;;;;;;;3.45;2.47;;;;;;;29.98;56.67;99337.50;5071002;28;20230;-82
2023/05/31 10:44:33;;;;;;;4.85;2.10;;;;;;;30.01;55.79;99338.88;5071708;28;20205;-80
2023/05/31 10:47:09;;;;;;;3.65;2.80;;;;;;;30.07;56.96;99331.88;5071128;28;20241;-81
2023/05/31 10:49:37;;;;;;;4.10;2.63;;;;;;;29.99;51.70;99330.41;5071423;28;20209;-81
2023/05/31 10:52:09;;;;;;;3.85;2.45;;;;;;;29.69;51.47;99325.28;5071289;28;20199;-81
2023/05/31 10:54:37;;;;;;;3.78;2.65;;;;;;;29.32;53.26;99322.81;5070845;28;20399;-81
2023/05/31 10:57:05;;;;;;;3.30;2.70;;;;;;;29.23;54.96;99321.53;5071213;28;20689;-81
2023/05/31 10:59:42;;;;;;;6.05;2.65;;;;;;;29.45;60.07;99314.72;5071087;28;20248;-81
2023/05/31 11:02:12;;;;;;;3.33;2.30;;;;;;;29.70;58.12;99316.31;5070794;28;20198;-81
2023/05/31 11:04:39;;;;;;;4.75;2.65;;;;;;;29.81;49.46;99318.16;5070496;28;20214;-81
2023/05/31 11:07:17;;;;;;;3.67;2.40;;;;;;;29.87;57.18;99316.44;5070689;28;20230;-81
2023/05/31 11:09:58;;;;;;;4.30;2.88;;;;;;;29.78;52.68;99308.06;5070797;28;20289;-80
2023/05/31 11:12:34;;;;;;;4.57;2.22;;;;;;;29.65;50.18;99308.34;5071120;28;20565;-80
2023/05/31 11:15:03;;;;;;;3.47;2.08;;;;;;;29.70;54.59;99311.06;5070794;28;20608;-80
2023/05/31 11:17:41;;;;;;;4.22;2.80;;;;;;;29.84;53.87;99312.44;5070870;28;20205;-80
2023/05/31 11:20:15;;;;;;;4.18;2.53;;;;;;;29.99;48.10;99315.41;5070832;28;20225;-80
2023/05/31 11:22:42;;;;;;;2.95;1.88;;;;;;;29.98;52.22;99308.50;5070898;28;20208;-80
2023/05/31 11:25:09;;;;;;;3.53;2.67;;;;;;;29.80;48.99;99300.75;5070532;28;20219;-81
2023/05/31 11:27:38;;;;;;;5.53;3.90;;;;;;;29.96;50.55;99305.31;5070633;28;20261;-80
2023/05/31 11:30:08;;;;;;;3.60;1.88;;;;;;;29.83;48.23;99308.19;5070834;28;20650;-80
2023/05/31 11:33:18;;;;;;;3.47;2.10;;;;;;;29.88;50.28;99295.13;5071128;28;20256;-80
2023/05/31 11:35:45;;;;;;;2.75;1.92;;;;;;;29.97;49.58;99295.56;5008097;28;20228;-79